createdAt,value
2017-07-04T19:50:12.540Z,17.00
2017-07-04T19:52:41.647Z,16.90
2017-07-04T19:55:12.875Z,16.90
2017-07-04T19:57:40.546Z,16.90
2017-07-04T20:00:08.154Z,16.80
2017-07-04T20:02:36.548Z,16.70
2017-07-04T20:05:04.145Z,16.70
2017-07-04T20:07:32.569Z,16.70
2017-07-04T20:10:02.559Z,16.70
2017-07-04T20:12:33.431Z,16.70
2017-07-04T20:15:01.154Z,16.60
2017-07-04T20:17:30.409Z,16.50
2017-07-04T20:19:58.100Z,16.50
2017-07-04T20:22:25.731Z,16.50
2017-07-04T20:24:53.305Z,16.50
2017-07-04T20:27:20.888Z,16.40
2017-07-04T20:29:48.525Z,16.40
2017-07-04T20:32:16.867Z,16.40
2017-07-04T20:34:45.480Z,16.30
2017-07-04T20:37:14.049Z,16.30
2017-07-04T20:39:42.480Z,16.30
2017-07-04T20:42:10.838Z,16.30
2017-07-04T20:44:39.546Z,16.20
2017-07-04T20:47:08.068Z,16.30
2017-07-04T20:49:35.704Z,16.30
2017-07-04T20:52:03.344Z,16.30
2017-07-04T20:54:31.549Z,16.30
2017-07-04T20:56:59.872Z,16.30
2017-07-04T20:59:28.545Z,16.30
2017-07-04T21:01:56.977Z,16.30
2017-07-04T21:04:25.455Z,16.20
2017-07-04T21:06:53.157Z,16.20
2017-07-04T21:09:20.764Z,16.20
2017-07-04T21:11:48.704Z,16.20
2017-07-04T21:14:16.333Z,16.10
2017-07-04T21:16:43.921Z,16.20
2017-07-04T21:19:11.519Z,16.10
2017-07-04T21:21:39.164Z,16.10
2017-07-04T21:24:06.740Z,16.10
2017-07-04T21:26:35.079Z,16.10
2017-07-04T21:29:02.727Z,16.10
2017-07-04T21:31:30.316Z,16.00
2017-07-04T21:33:57.912Z,16.00
2017-07-04T21:36:25.536Z,16.00
2017-07-04T21:38:53.122Z,16.00
2017-07-04T21:41:21.483Z,16.00
2017-07-04T21:43:49.872Z,16.00
2017-07-04T21:46:17.458Z,15.90
2017-07-04T21:48:45.032Z,15.90
2017-07-04T21:51:12.667Z,15.90
2017-07-04T21:53:40.249Z,15.90
2017-07-04T21:56:07.842Z,15.90
2017-07-04T21:58:35.502Z,15.80
2017-07-04T22:01:03.087Z,15.80
2017-07-04T22:03:30.672Z,15.80
2017-07-04T22:05:58.300Z,15.80
2017-07-04T22:08:25.886Z,15.80
2017-07-04T22:10:53.459Z,15.80
2017-07-04T22:13:21.098Z,15.80
2017-07-04T22:15:48.689Z,15.70
2017-07-04T22:18:16.273Z,15.70
2017-07-04T22:20:44.655Z,15.70
2017-07-04T22:23:12.235Z,15.70
2017-07-04T22:25:39.821Z,15.70
2017-07-04T22:28:08.229Z,15.70
2017-07-04T22:30:35.816Z,15.70
2017-07-04T22:33:03.393Z,15.70
2017-07-04T22:35:31.008Z,15.70
2017-07-04T22:37:59.359Z,15.70
2017-07-04T22:40:26.957Z,15.70
2017-07-04T22:42:54.567Z,15.70
2017-07-04T22:45:22.133Z,15.60
2017-07-04T22:47:49.698Z,15.70
2017-07-04T22:50:17.342Z,15.60
2017-07-04T22:52:44.938Z,15.60
2017-07-04T22:55:13.297Z,15.60
2017-07-04T22:57:41.678Z,15.60
2017-07-04T23:00:09.268Z,15.60
2017-07-04T23:02:36.847Z,15.60
2017-07-04T23:05:04.477Z,15.60
2017-07-04T23:07:32.074Z,15.60
2017-07-04T23:09:59.648Z,15.60
2017-07-04T23:12:27.259Z,15.60
2017-07-04T23:14:54.927Z,15.60
2017-07-04T23:17:22.497Z,15.60
2017-07-04T23:19:50.110Z,15.60
2017-07-04T23:22:17.701Z,15.60
2017-07-04T23:24:45.296Z,15.60
2017-07-04T23:27:12.958Z,15.50
2017-07-04T23:29:40.532Z,15.60
2017-07-04T23:32:08.103Z,15.50
2017-07-04T23:34:36.509Z,15.50
2017-07-04T23:37:04.079Z,15.50
2017-07-04T23:39:31.685Z,15.50
2017-07-04T23:41:59.313Z,15.50
2017-07-04T23:44:26.906Z,15.50
2017-07-04T23:46:54.525Z,15.50
2017-07-04T23:49:22.161Z,15.50
2017-07-04T23:51:49.729Z,15.40
2017-07-04T23:54:17.294Z,15.50
2017-07-04T23:56:44.931Z,15.50
2017-07-04T23:59:12.503Z,15.50
